createdAt,value
2022-09-07T00:00:28.707Z,6.83
2022-09-07T00:03:33.835Z,6.83
2022-09-07T00:06:42.712Z,6.22
2022-09-07T00:09:49.986Z,5.57
2022-09-07T00:12:54.971Z,4.95
2022-09-07T00:16:00.783Z,5.40
2022-09-07T00:19:09.470Z,4.50
2022-09-07T00:22:16.309Z,4.70
2022-09-07T00:25:23.734Z,4.67
2022-09-07T00:28:29.069Z,4.95
2022-09-07T00:31:36.700Z,4.47
2022-09-07T00:34:42.555Z,5.05
2022-09-07T00:37:48.532Z,4.55
2022-09-07T00:40:54.066Z,4.62
2022-09-07T00:44:07.120Z,4.28
2022-09-07T00:47:06.234Z,3.62
2022-09-07T00:50:34.793Z,4.30
2022-09-07T00:53:48.352Z,4.42
2022-09-07T00:56:55.905Z,4.12
2022-09-07T01:00:04.790Z,4.22
2022-09-07T01:03:10.347Z,4.10
2022-09-07T01:06:32.114Z,3.92
2022-09-07T01:09:37.723Z,3.60
2022-09-07T01:12:38.299Z,3.60
2022-09-07T01:16:07.958Z,3.52
2022-09-07T01:19:47.318Z,3.20
2022-09-07T01:23:32.177Z,3.95
2022-09-07T01:27:24.098Z,4.62
2022-09-07T01:30:36.802Z,3.92
2022-09-07T01:33:55.580Z,3.37
2022-09-07T01:37:17.333Z,3.72
2022-09-07T01:40:50.191Z,3.58
2022-09-07T01:44:07.961Z,4.12
2022-09-07T01:47:25.811Z,3.60
2022-09-07T01:50:59.896Z,4.08
2022-09-07T01:54:10.177Z,3.90
2022-09-07T01:57:23.171Z,4.72
2022-09-07T02:00:30.097Z,3.87
2022-09-07T02:03:50.805Z,4.55
2022-09-07T02:07:12.173Z,4.03
2022-09-07T02:10:41.356Z,3.90
2022-09-07T02:13:54.081Z,3.95
2022-09-07T02:17:20.801Z,3.75
2022-09-07T02:20:33.947Z,3.62
2022-09-07T02:23:46.409Z,3.95
2022-09-07T02:26:53.757Z,3.52
2022-09-07T02:30:00.933Z,3.83
2022-09-07T02:33:07.072Z,4.40
2022-09-07T02:36:11.854Z,3.95
2022-09-07T02:39:18.125Z,4.85
2022-09-07T02:42:24.844Z,4.78
2022-09-07T02:45:30.202Z,4.47
2022-09-07T02:48:52.660Z,5.42
2022-09-07T02:52:18.480Z,5.22
2022-09-07T02:55:50.174Z,5.47
2022-09-07T02:59:03.566Z,4.92
2022-09-07T03:02:22.650Z,5.37
2022-09-07T03:06:06.319Z,4.83
2022-09-07T03:09:13.072Z,4.75
2022-09-07T03:12:20.653Z,5.10
2022-09-07T03:15:29.566Z,4.45
2022-09-07T03:18:35.342Z,4.90
2022-09-07T03:21:41.545Z,4.10
2022-09-07T03:24:47.778Z,4.30
2022-09-07T03:27:53.829Z,4.03
2022-09-07T03:30:59.530Z,4.40
2022-09-07T03:34:05.175Z,4.20
2022-09-07T03:37:04.913Z,4.17
2022-09-07T03:40:11.675Z,3.50
2022-09-07T03:43:17.568Z,3.60
2022-09-07T03:46:26.333Z,3.83
2022-09-07T03:49:32.926Z,3.42
2022-09-07T03:52:39.607Z,3.92
2022-09-07T03:55:45.403Z,3.30
2022-09-07T03:58:51.914Z,3.67
2022-09-07T04:01:59.605Z,3.58
2022-09-07T04:05:05.824Z,3.95
2022-09-07T04:08:10.999Z,3.92
2022-09-07T04:11:17.294Z,3.80
2022-09-07T04:14:25.189Z,3.62
2022-09-07T04:17:30.921Z,4.20
2022-09-07T04:20:36.836Z,4.22
2022-09-07T04:23:42.853Z,4.58
2022-09-07T04:26:50.653Z,4.55
2022-09-07T04:29:56.929Z,4.40
2022-09-07T04:33:03.286Z,4.40
2022-09-07T04:36:10.136Z,4.87
2022-09-07T04:39:17.870Z,3.87
2022-09-07T04:42:25.604Z,4.10
2022-09-07T04:45:31.079Z,3.22
2022-09-07T04:48:37.273Z,3.87
2022-09-07T04:51:37.922Z,3.85
2022-09-07T04:54:23.654Z,3.87
2022-09-07T04:57:19.505Z,3.37
2022-09-07T05:00:07.873Z,3.50
2022-09-07T05:03:00.520Z,2.98
2022-09-07T05:05:46.788Z,2.90
2022-09-07T05:08:41.239Z,3.60
2022-09-07T05:11:31.132Z,3.25
2022-09-07T05:14:24.144Z,3.20
2022-09-07T05:17:29.455Z,3.83
2022-09-07T05:20:34.358Z,3.52
2022-09-07T05:23:39.951Z,3.95
2022-09-07T05:26:49.046Z,4.00
2022-09-07T05:30:04.647Z,3.42
2022-09-07T05:33:03.664Z,3.67
2022-09-07T05:36:13.458Z,3.92
2022-09-07T05:39:18.428Z,4.33
2022-09-07T05:42:23.446Z,3.58
2022-09-07T05:45:23.551Z,4.12
2022-09-07T05:48:29.105Z,4.22
2022-09-07T05:51:34.778Z,3.70
2022-09-07T05:54:41.199Z,3.10
2022-09-07T05:57:45.624Z,2.62
2022-09-07T06:00:51.839Z,2.30
2022-09-07T06:03:50.960Z,2.37
2022-09-07T06:07:20.645Z,2.70
2022-09-07T06:13:11.721Z,2.80
2022-09-07T06:16:19.052Z,2.40
2022-09-07T06:19:25.859Z,2.05
2022-09-07T06:22:31.500Z,2.00
2022-09-07T06:25:37.057Z,1.80
2022-09-07T06:28:49.190Z,1.42
2022-09-07T06:35:01.461Z,1.52
2022-09-07T06:38:07.510Z,1.35
2022-09-07T06:44:29.426Z,1.35
2022-09-07T06:47:35.248Z,1.22
2022-09-07T06:50:41.701Z,1.40
2022-09-07T06:53:47.550Z,1.42
2022-09-07T06:56:54.154Z,1.20
2022-09-07T07:00:00.294Z,1.20
2022-09-07T07:03:09.016Z,1.10
2022-09-07T07:06:14.684Z,1.40
2022-09-07T07:09:25.735Z,1.50
2022-09-07T07:15:36.285Z,1.35
2022-09-07T07:18:42.232Z,1.40
2022-09-07T07:22:10.668Z,1.60
2022-09-07T07:24:56.023Z,1.12
2022-09-07T07:31:12.175Z,1.40
2022-09-07T07:37:10.416Z,1.40
2022-09-07T07:40:17.536Z,1.82
2022-09-07T07:43:23.533Z,1.50
2022-09-07T07:46:33.454Z,1.22
2022-09-07T07:49:39.774Z,1.45
2022-09-07T07:53:39.621Z,1.70
2022-09-07T07:55:57.958Z,1.45
2022-09-07T07:59:04.647Z,1.02
2022-09-07T08:02:11.795Z,1.02
2022-09-07T08:05:17.416Z,1.17
2022-09-07T08:08:23.377Z,1.30
2022-09-07T08:11:34.466Z,1.35
2022-09-07T08:14:40.119Z,1.10
2022-09-07T08:17:45.744Z,1.05
2022-09-07T08:20:51.075Z,0.90
2022-09-07T08:23:57.157Z,0.85
2022-09-07T08:27:03.771Z,0.62
2022-09-07T08:30:08.668Z,1.00
2022-09-07T08:33:13.782Z,0.78
2022-09-07T08:36:34.699Z,0.80
2022-09-07T08:39:40.331Z,0.93
2022-09-07T08:43:03.393Z,1.07
2022-09-07T08:46:11.652Z,0.90
2022-09-07T08:49:16.475Z,1.10
2022-09-07T08:52:29.099Z,1.30
2022-09-07T08:55:39.541Z,1.15
2022-09-07T08:59:02.787Z,0.93
2022-09-07T09:05:16.943Z,1.02
2022-09-07T09:08:56.214Z,1.37
2022-09-07T09:12:36.823Z,1.02
2022-09-07T09:15:44.125Z,1.45
2022-09-07T09:22:38.444Z,0.90
2022-09-07T09:25:47.428Z,1.60
2022-09-07T09:28:53.641Z,1.60
2022-09-07T09:32:00.096Z,1.72
2022-09-07T09:35:32.699Z,1.65
2022-09-07T09:38:51.159Z,1.57
2022-09-07T09:41:57.653Z,1.52
2022-09-07T09:45:02.809Z,1.30
2022-09-07T09:48:09.193Z,1.35
2022-09-07T09:54:55.836Z,1.95
2022-09-07T10:04:45.784Z,1.60
2022-09-07T10:07:52.819Z,1.30
2022-09-07T10:11:21.074Z,1.05
2022-09-07T10:14:45.829Z,1.35
2022-09-07T10:17:57.468Z,1.37
2022-09-07T10:21:03.148Z,1.02
2022-09-07T10:24:21.689Z,0.85
2022-09-07T10:27:48.090Z,1.75
2022-09-07T10:31:04.033Z,1.40
2022-09-07T10:34:26.017Z,1.52
2022-09-07T10:37:54.969Z,1.32
2022-09-07T10:41:17.362Z,1.32
2022-09-07T10:44:23.372Z,1.30
2022-09-07T10:47:39.403Z,1.30
2022-09-07T10:51:13.737Z,1.32
2022-09-07T10:54:39.606Z,1.12
2022-09-07T10:59:01.512Z,1.10
2022-09-07T11:01:44.105Z,1.00
2022-09-07T11:05:38.559Z,0.80
2022-09-07T11:09:32.611Z,1.00
2022-09-07T11:12:50.332Z,1.05
2022-09-07T11:15:59.926Z,0.95
2022-09-07T11:22:34.603Z,0.78
2022-09-07T11:25:55.371Z,1.00
2022-09-07T11:29:31.619Z,1.15
2022-09-07T11:32:27.741Z,1.30
2022-09-07T11:36:11.279Z,1.15
2022-09-07T11:39:22.508Z,1.57
2022-09-07T11:42:47.050Z,1.15
2022-09-07T11:46:11.483Z,1.20
2022-09-07T11:49:18.073Z,1.20
2022-09-07T11:52:54.892Z,1.20
2022-09-07T11:56:02.485Z,1.00
2022-09-07T11:59:37.136Z,1.10
2022-09-07T12:03:08.414Z,1.10
2022-09-07T12:06:51.541Z,1.15
2022-09-07T12:10:26.705Z,1.30
2022-09-07T12:13:49.238Z,1.00
2022-09-07T12:17:41.715Z,1.10
2022-09-07T12:21:01.381Z,1.30
2022-09-07T12:24:07.679Z,1.37
2022-09-07T12:27:14.541Z,0.90
2022-09-07T12:30:31.118Z,1.00
2022-09-07T12:33:39.617Z,1.20
2022-09-07T12:36:49.227Z,0.90
2022-09-07T12:39:54.494Z,1.20
2022-09-07T12:43:09.422Z,1.10
2022-09-07T12:46:08.585Z,1.40
2022-09-07T12:49:32.459Z,1.00
2022-09-07T12:52:47.921Z,1.37
2022-09-07T12:56:26.594Z,1.40
2022-09-07T13:00:01.209Z,1.05
2022-09-07T13:07:02.638Z,1.15
2022-09-07T13:10:11.079Z,1.17
2022-09-07T13:20:11.524Z,1.20
2022-09-07T13:23:35.012Z,1.27
2022-09-07T13:27:09.597Z,1.10
2022-09-07T13:34:13.905Z,1.20
2022-09-07T13:37:30.060Z,1.12
2022-09-07T13:40:39.739Z,1.40
2022-09-07T13:47:28.869Z,1.00
2022-09-07T13:50:56.675Z,0.98
2022-09-07T13:54:20.768Z,1.10
2022-09-07T13:57:33.988Z,0.90
2022-09-07T14:00:39.023Z,1.05
2022-09-07T14:03:49.383Z,1.12
2022-09-07T14:06:55.500Z,0.95
2022-09-07T14:10:01.209Z,0.80
2022-09-07T14:13:22.671Z,0.90
2022-09-07T14:16:28.684Z,0.90
2022-09-07T14:19:41.244Z,1.02
2022-09-07T14:22:53.250Z,0.90
2022-09-07T14:29:00.764Z,0.88
2022-09-07T14:32:07.586Z,0.90
2022-09-07T14:35:24.103Z,1.10
2022-09-07T14:41:43.456Z,0.95
2022-09-07T14:44:54.353Z,0.90
2022-09-07T14:48:01.375Z,1.02
2022-09-07T14:51:29.726Z,0.80
2022-09-07T14:54:17.510Z,1.05
2022-09-07T14:57:27.640Z,0.85
2022-09-07T15:00:46.622Z,1.02
2022-09-07T15:04:00.668Z,0.90
2022-09-07T15:07:07.045Z,0.90
2022-09-07T15:10:32.246Z,1.00
2022-09-07T15:13:45.585Z,0.80
2022-09-07T15:20:10.677Z,1.02
2022-09-07T15:23:20.162Z,1.10
2022-09-07T15:29:35.841Z,1.17
2022-09-07T15:32:47.183Z,1.10
2022-09-07T15:35:53.524Z,1.12
2022-09-07T15:39:01.599Z,1.30
2022-09-07T15:45:14.698Z,1.50
2022-09-07T15:48:20.448Z,1.27
2022-09-07T15:54:39.617Z,6.05
2022-09-07T15:57:52.799Z,12.30
2022-09-07T16:04:09.163Z,11.50
2022-09-07T16:07:15.283Z,10.55
2022-09-07T16:10:21.669Z,13.40
2022-09-07T16:13:31.440Z,7.90
2022-09-07T16:19:43.276Z,7.28
2022-09-07T16:26:10.883Z,7.50
2022-09-07T16:29:17.917Z,4.37
2022-09-07T16:35:29.308Z,3.30
2022-09-07T16:38:49.592Z,2.52
2022-09-07T16:41:44.216Z,2.62
2022-09-07T16:44:50.319Z,3.15
2022-09-07T16:47:56.879Z,2.52
2022-09-07T16:51:02.861Z,2.70
2022-09-07T16:54:10.062Z,3.05
2022-09-07T16:57:15.859Z,3.08
2022-09-07T17:00:23.638Z,3.12
2022-09-07T17:03:30.264Z,2.65
2022-09-07T17:06:37.548Z,3.10
2022-09-07T17:09:42.382Z,2.72
2022-09-07T17:12:48.080Z,2.15
2022-09-07T17:15:53.853Z,3.02
2022-09-07T17:22:07.237Z,2.90
2022-09-07T17:25:14.118Z,2.27
2022-09-07T17:28:20.527Z,2.70
2022-09-07T17:34:35.369Z,2.22
2022-09-07T17:37:41.320Z,2.27
2022-09-07T17:40:47.727Z,1.90
2022-09-07T17:43:54.627Z,2.33
2022-09-07T17:46:59.932Z,2.10
2022-09-07T17:50:04.783Z,4.50
2022-09-07T17:53:03.604Z,3.65
2022-09-07T17:56:09.926Z,3.95
2022-09-07T18:02:21.808Z,2.80
2022-09-07T18:05:28.138Z,2.33
2022-09-07T18:08:34.003Z,2.37
2022-09-07T18:11:48.127Z,2.60
2022-09-07T18:14:45.424Z,2.75
2022-09-07T18:17:52.161Z,2.25
2022-09-07T18:20:58.326Z,2.47
2022-09-07T18:24:14.067Z,2.60
2022-09-07T18:27:20.614Z,2.70
2022-09-07T18:30:28.079Z,2.33
2022-09-07T18:33:35.576Z,2.55
2022-09-07T18:36:44.006Z,2.90
2022-09-07T18:39:50.883Z,3.02
2022-09-07T18:42:55.769Z,3.27
2022-09-07T18:46:02.273Z,2.90
2022-09-07T18:49:09.103Z,2.70
2022-09-07T18:55:24.079Z,2.52
2022-09-07T18:58:29.818Z,3.17
2022-09-07T19:01:37.247Z,2.72
2022-09-07T19:07:50.531Z,3.10
2022-09-07T19:10:56.907Z,2.90
2022-09-07T19:14:07.373Z,3.25
2022-09-07T19:17:13.483Z,3.15
2022-09-07T19:20:19.083Z,3.37
2022-09-07T19:23:23.999Z,4.00
2022-09-07T19:26:28.962Z,3.20
2022-09-07T19:29:35.437Z,3.58
2022-09-07T19:32:40.213Z,3.12
2022-09-07T19:35:48.468Z,3.00
2022-09-07T19:38:55.888Z,3.25
2022-09-07T19:42:01.340Z,3.20
2022-09-07T19:45:07.628Z,3.45
2022-09-07T19:48:13.739Z,3.33
2022-09-07T19:51:21.710Z,3.25
2022-09-07T19:54:27.076Z,3.00
2022-09-07T19:57:31.794Z,3.20
2022-09-07T20:00:37.808Z,3.45
2022-09-07T20:03:42.816Z,3.45
2022-09-07T20:06:48.850Z,2.58
2022-09-07T20:09:55.766Z,3.33
2022-09-07T20:13:01.359Z,3.47
2022-09-07T20:16:07.055Z,3.17
2022-09-07T20:19:15.127Z,3.33
2022-09-07T20:22:21.264Z,3.37
2022-09-07T20:25:28.051Z,3.47
2022-09-07T20:28:33.930Z,3.62
2022-09-07T20:31:39.303Z,3.87
2022-09-07T20:34:45.509Z,4.67
2022-09-07T20:37:51.908Z,4.22
2022-09-07T20:41:10.425Z,3.62
2022-09-07T20:44:17.436Z,3.47
2022-09-07T20:47:25.922Z,3.65
2022-09-07T20:50:31.809Z,3.50
2022-09-07T20:53:37.470Z,3.80
2022-09-07T20:56:44.008Z,3.52
2022-09-07T20:59:49.837Z,3.27
2022-09-07T21:02:54.678Z,4.15
2022-09-07T21:06:00.069Z,3.85
2022-09-07T21:09:05.912Z,3.58
2022-09-07T21:12:11.575Z,3.22
2022-09-07T21:15:17.956Z,3.80
2022-09-07T21:18:28.982Z,3.72
2022-09-07T21:21:38.326Z,3.83
2022-09-07T21:24:41.886Z,4.05
2022-09-07T21:27:47.770Z,3.58
2022-09-07T21:30:53.974Z,3.42
2022-09-07T21:33:58.869Z,4.03
2022-09-07T21:37:04.881Z,3.58
2022-09-07T21:40:12.337Z,3.35
2022-09-07T21:43:19.092Z,3.67
2022-09-07T21:46:32.846Z,3.40
2022-09-07T21:49:31.913Z,4.15
2022-09-07T21:52:38.821Z,3.40
2022-09-07T21:55:44.182Z,3.35
2022-09-07T21:58:50.392Z,3.65
2022-09-07T22:01:56.186Z,4.05
2022-09-07T22:05:01.893Z,4.35
2022-09-07T22:08:07.526Z,3.45
2022-09-07T22:11:22.966Z,3.60
2022-09-07T22:14:29.666Z,3.77
2022-09-07T22:17:36.059Z,3.75
2022-09-07T22:20:40.905Z,3.37
2022-09-07T22:23:50.128Z,3.37
2022-09-07T22:26:55.918Z,3.70
2022-09-07T22:30:02.294Z,3.80
2022-09-07T22:33:08.281Z,4.10
2022-09-07T22:36:34.454Z,3.45
2022-09-07T22:39:39.325Z,3.85
2022-09-07T22:42:44.390Z,3.60
2022-09-07T22:45:50.773Z,3.37
2022-09-07T22:48:56.490Z,3.58
2022-09-07T22:52:03.127Z,3.47
2022-09-07T22:55:09.847Z,3.87
2022-09-07T22:58:15.728Z,3.75
2022-09-07T23:01:21.293Z,3.58
2022-09-07T23:07:41.629Z,3.80
2022-09-07T23:10:49.010Z,3.70
2022-09-07T23:13:55.880Z,4.05
2022-09-07T23:17:01.456Z,3.85
2022-09-07T23:20:07.238Z,3.62
2022-09-07T23:23:12.493Z,4.20
2022-09-07T23:26:19.168Z,3.67
2022-09-07T23:29:20.715Z,3.60
2022-09-07T23:32:25.456Z,4.03
2022-09-07T23:35:30.403Z,3.55
2022-09-07T23:38:35.879Z,3.55
2022-09-07T23:41:43.058Z,3.85
2022-09-07T23:44:48.068Z,3.55
2022-09-07T23:47:53.526Z,4.05
2022-09-07T23:51:00.874Z,4.08
2022-09-07T23:54:05.614Z,3.70
2022-09-07T23:57:11.402Z,4.67
